createdAt,value
2022-09-26T00:02:44.792Z,17.67
2022-09-26T00:05:37.163Z,18.27
2022-09-26T00:08:27.078Z,19.65
2022-09-26T00:11:23.097Z,14.57
2022-09-26T00:14:16.816Z,13.52
2022-09-26T00:17:06.729Z,15.25
2022-09-26T00:19:57.283Z,17.90
2022-09-26T00:22:47.085Z,18.95
2022-09-26T00:25:36.904Z,11.88
2022-09-26T00:28:27.837Z,11.85
2022-09-26T00:31:24.829Z,13.98
2022-09-26T00:34:18.957Z,13.23
2022-09-26T00:37:08.961Z,15.40
2022-09-26T00:39:59.462Z,12.32
2022-09-26T00:42:49.324Z,11.77
2022-09-26T00:45:39.563Z,12.90
2022-09-26T00:48:31.346Z,14.65
2022-09-26T00:51:22.082Z,16.92
2022-09-26T00:54:15.889Z,13.40
2022-09-26T00:57:12.862Z,16.02
2022-09-26T01:00:08.521Z,22.42
2022-09-26T01:02:58.736Z,18.42
2022-09-26T01:05:49.076Z,16.50
2022-09-26T01:08:47.920Z,16.40
2022-09-26T01:11:40.141Z,18.02
2022-09-26T01:14:32.760Z,22.67
2022-09-26T01:17:24.266Z,16.63
2022-09-26T01:20:39.018Z,16.95
2022-09-26T01:23:50.840Z,13.90
2022-09-26T01:26:51.675Z,17.95
2022-09-26T01:30:00.289Z,22.30
2022-09-26T01:33:08.993Z,19.40
2022-09-26T01:36:22.695Z,20.90
2022-09-26T01:39:30.418Z,19.33
2022-09-26T01:42:31.224Z,19.85
2022-09-26T01:45:26.026Z,18.00
2022-09-26T01:48:25.023Z,16.75
2022-09-26T01:51:41.940Z,19.10
2022-09-26T01:54:48.036Z,17.90
2022-09-26T01:57:48.341Z,18.52
2022-09-26T02:00:41.791Z,21.00
2022-09-26T02:03:37.032Z,17.55
2022-09-26T02:06:57.695Z,17.25
2022-09-26T02:09:59.183Z,16.58
2022-09-26T02:12:55.001Z,16.15
2022-09-26T02:15:49.444Z,17.63
2022-09-26T02:18:50.939Z,20.38
2022-09-26T02:21:42.478Z,16.75
2022-09-26T02:24:33.974Z,20.35
2022-09-26T02:27:26.130Z,16.77
2022-09-26T02:30:16.479Z,18.92
2022-09-26T02:33:06.561Z,18.65
2022-09-26T02:35:58.559Z,18.58
2022-09-26T02:38:51.420Z,14.80
2022-09-26T02:42:18.002Z,16.35
2022-09-26T02:45:34.602Z,15.95
2022-09-26T02:49:02.860Z,16.40
2022-09-26T02:52:04.783Z,15.82
2022-09-26T02:55:12.644Z,18.10
2022-09-26T02:58:28.078Z,18.58
2022-09-26T03:01:47.462Z,17.73
2022-09-26T03:04:58.221Z,17.23
2022-09-26T03:08:09.927Z,21.40
2022-09-26T03:11:04.857Z,18.50
2022-09-26T03:13:57.810Z,19.40
2022-09-26T03:16:50.690Z,21.03
2022-09-26T03:19:47.346Z,18.38
2022-09-26T03:22:38.770Z,17.33
2022-09-26T03:25:31.436Z,16.63
2022-09-26T03:28:27.605Z,18.65
2022-09-26T03:31:22.037Z,17.55
2022-09-26T03:34:17.790Z,17.33
2022-09-26T03:37:08.701Z,15.32
2022-09-26T03:39:58.970Z,18.13
2022-09-26T03:43:10.480Z,16.80
2022-09-26T03:46:06.161Z,20.73
2022-09-26T03:48:58.245Z,17.50
2022-09-26T03:51:48.287Z,22.10
2022-09-26T03:54:38.914Z,19.73
2022-09-26T03:57:28.838Z,16.35
2022-09-26T04:00:25.232Z,15.20
2022-09-26T04:03:15.006Z,18.35
2022-09-26T04:06:10.180Z,17.73
2022-09-26T04:09:02.173Z,19.77
2022-09-26T04:11:55.322Z,15.30
2022-09-26T04:14:46.328Z,20.05
2022-09-26T04:17:36.926Z,19.98
2022-09-26T04:20:27.492Z,18.88
2022-09-26T04:23:18.400Z,20.10
2022-09-26T04:26:09.572Z,23.02
2022-09-26T04:28:59.648Z,25.08
2022-09-26T04:32:09.919Z,19.25
2022-09-26T04:35:24.233Z,17.73
2022-09-26T04:38:15.191Z,21.20
2022-09-26T04:41:27.645Z,20.95
2022-09-26T04:44:17.627Z,19.20
2022-09-26T04:47:08.275Z,18.80
2022-09-26T04:50:18.172Z,17.23
2022-09-26T04:53:24.945Z,20.77
2022-09-26T04:56:27.377Z,19.77
2022-09-26T04:59:17.564Z,16.27
2022-09-26T05:02:16.455Z,17.92
2022-09-26T05:05:08.577Z,18.95
2022-09-26T05:07:58.958Z,19.13
2022-09-26T05:10:54.950Z,18.60
2022-09-26T05:13:48.048Z,20.45
2022-09-26T05:16:41.347Z,20.30
2022-09-26T05:19:35.300Z,18.92
2022-09-26T05:22:48.641Z,21.88
2022-09-26T05:25:59.877Z,19.42
2022-09-26T05:28:55.413Z,19.77
2022-09-26T05:31:49.160Z,21.35
2022-09-26T05:34:39.666Z,17.10
2022-09-26T05:37:31.632Z,23.10
2022-09-26T05:40:41.578Z,22.98
2022-09-26T05:43:35.628Z,26.70
2022-09-26T05:46:31.882Z,29.25
2022-09-26T05:49:29.753Z,30.05
2022-09-26T05:52:22.721Z,27.15
2022-09-26T05:55:14.602Z,31.75
2022-09-26T05:58:39.144Z,25.42
2022-09-26T06:01:41.414Z,29.20
2022-09-26T06:04:46.063Z,28.58
2022-09-26T06:07:55.164Z,34.45
2022-09-26T06:11:07.896Z,27.83
2022-09-26T06:14:02.764Z,30.52
2022-09-26T06:16:53.151Z,27.08
2022-09-26T06:19:43.346Z,36.00
2022-09-26T06:22:43.509Z,35.15
2022-09-26T06:25:35.048Z,34.47
2022-09-26T06:28:27.842Z,25.88
2022-09-26T06:31:19.838Z,33.10
2022-09-26T06:34:30.234Z,26.85
2022-09-26T06:37:44.509Z,26.17
2022-09-26T06:40:34.286Z,21.50
2022-09-26T06:43:24.634Z,17.35
2022-09-26T06:46:43.760Z,18.48
2022-09-26T06:49:39.558Z,13.65
2022-09-26T06:52:34.952Z,17.63
2022-09-26T06:55:25.813Z,15.00
2022-09-26T06:58:16.137Z,13.82
2022-09-26T07:01:19.113Z,20.05
2022-09-26T07:04:31.892Z,16.75
2022-09-26T07:07:30.386Z,20.38
2022-09-26T07:10:21.604Z,22.05
2022-09-26T07:13:20.122Z,22.20
2022-09-26T07:16:12.365Z,22.17
2022-09-26T07:19:38.158Z,23.33
2022-09-26T07:22:31.258Z,27.25
2022-09-26T07:25:21.784Z,24.40
2022-09-26T07:28:12.750Z,23.73
2022-09-26T07:31:15.586Z,20.75
2022-09-26T07:34:25.943Z,20.27
2022-09-26T07:37:17.307Z,23.45
2022-09-26T07:40:09.712Z,23.83
2022-09-26T07:43:19.111Z,25.88
2022-09-26T07:46:29.904Z,18.30
2022-09-26T07:49:39.175Z,16.90
2022-09-26T07:52:49.935Z,25.30
2022-09-26T07:56:03.254Z,15.60
2022-09-26T07:59:21.348Z,13.95
2022-09-26T08:02:29.096Z,11.95
2022-09-26T08:05:20.550Z,13.60
2022-09-26T08:08:11.935Z,15.80
2022-09-26T08:11:31.381Z,15.00
2022-09-26T08:14:52.824Z,16.67
2022-09-26T08:18:03.652Z,13.48
2022-09-26T08:20:54.257Z,13.10
2022-09-26T08:23:46.082Z,11.75
2022-09-26T08:26:55.698Z,8.57
2022-09-26T08:29:51.040Z,9.80
2022-09-26T08:32:42.221Z,10.68
2022-09-26T08:35:38.486Z,12.68
2022-09-26T08:38:41.456Z,8.52
2022-09-26T08:42:08.545Z,7.95
2022-09-26T08:46:01.223Z,9.38
2022-09-26T08:49:35.019Z,6.35
2022-09-26T08:52:31.468Z,7.00
2022-09-26T08:55:25.973Z,7.55
2022-09-26T08:58:28.938Z,6.78
2022-09-26T09:01:39.311Z,5.63
2022-09-26T09:04:53.670Z,5.25
2022-09-26T09:07:51.402Z,6.68
2022-09-26T09:10:47.168Z,6.43
2022-09-26T09:14:06.826Z,6.07
2022-09-26T09:17:39.119Z,3.92
2022-09-26T09:21:06.341Z,4.55
2022-09-26T09:24:58.537Z,7.60
2022-09-26T09:28:15.764Z,3.20
2022-09-26T09:31:11.400Z,5.43
2022-09-26T09:34:29.881Z,4.50
2022-09-26T09:37:50.809Z,3.25
2022-09-26T09:41:10.179Z,5.43
2022-09-26T09:44:05.529Z,4.40
2022-09-26T09:46:55.798Z,6.60
2022-09-26T09:49:49.198Z,2.30
2022-09-26T09:53:07.786Z,5.05
2022-09-26T09:56:15.806Z,2.50
2022-09-26T09:59:22.705Z,3.53
2022-09-26T10:02:52.349Z,4.60
2022-09-26T10:05:53.980Z,4.32
2022-09-26T10:08:52.586Z,3.58
2022-09-26T10:12:03.037Z,2.90
2022-09-26T10:15:21.562Z,3.75
2022-09-26T10:18:31.306Z,2.70
2022-09-26T10:21:41.170Z,2.17
2022-09-26T10:24:41.525Z,2.40
2022-09-26T10:27:38.306Z,3.95
2022-09-26T10:30:33.410Z,2.40
2022-09-26T10:33:33.480Z,3.03
2022-09-26T10:36:40.207Z,4.43
2022-09-26T10:40:09.373Z,2.28
2022-09-26T10:43:25.952Z,5.45
2022-09-26T10:46:23.312Z,1.10
2022-09-26T10:49:40.625Z,4.20
2022-09-26T10:53:01.383Z,2.50
2022-09-26T10:55:59.744Z,2.92
2022-09-26T10:58:52.133Z,3.58
2022-09-26T11:01:51.299Z,11.02
2022-09-26T11:05:05.015Z,13.10
2022-09-26T11:08:15.000Z,8.88
2022-09-26T11:11:27.586Z,3.30
2022-09-26T11:14:32.593Z,4.97
2022-09-26T11:17:48.055Z,2.45
2022-09-26T11:20:50.566Z,2.47
2022-09-26T11:24:03.296Z,3.40
2022-09-26T11:27:26.586Z,6.80
2022-09-26T11:30:20.792Z,4.68
2022-09-26T11:33:27.152Z,3.08
2022-09-26T11:36:36.268Z,3.65
2022-09-26T11:39:40.694Z,1.80
2022-09-26T11:42:54.786Z,3.65
2022-09-26T11:46:04.619Z,4.30
2022-09-26T11:49:39.853Z,2.83
2022-09-26T11:52:53.870Z,1.67
2022-09-26T11:56:02.372Z,1.98
2022-09-26T11:59:15.537Z,4.30
2022-09-26T12:02:31.169Z,3.63
2022-09-26T12:05:36.575Z,3.67
2022-09-26T12:08:42.100Z,2.42
2022-09-26T12:12:11.052Z,4.05
2022-09-26T12:15:27.742Z,3.22
2022-09-26T12:18:53.459Z,0.90
2022-09-26T12:22:13.313Z,1.25
2022-09-26T12:25:32.453Z,1.98
2022-09-26T12:28:51.693Z,1.77
2022-09-26T12:31:41.736Z,1.17
2022-09-26T12:34:56.183Z,0.93
2022-09-26T12:38:17.128Z,0.75
2022-09-26T12:41:37.096Z,1.90
2022-09-26T12:44:59.645Z,1.60
2022-09-26T12:48:20.857Z,1.88
2022-09-26T12:51:41.229Z,0.93
2022-09-26T12:55:00.013Z,0.95
2022-09-26T12:57:52.882Z,3.22
2022-09-26T13:01:06.534Z,2.58
2022-09-26T13:04:12.262Z,2.35
2022-09-26T13:07:24.589Z,1.02
2022-09-26T13:10:27.054Z,2.60
2022-09-26T13:13:32.531Z,1.70
2022-09-26T13:16:34.910Z,2.70
2022-09-26T13:19:59.271Z,1.75
2022-09-26T13:22:58.543Z,2.35
2022-09-26T13:25:53.972Z,3.63
2022-09-26T13:29:15.794Z,2.53
2022-09-26T13:32:04.339Z,4.57
2022-09-26T13:35:04.194Z,3.13
2022-09-26T13:38:06.209Z,2.13
2022-09-26T13:41:16.029Z,3.25
2022-09-26T13:44:18.438Z,1.30
2022-09-26T13:47:15.066Z,1.10
2022-09-26T13:50:24.054Z,0.88
2022-09-26T13:53:40.799Z,4.10
2022-09-26T13:56:35.102Z,1.65
2022-09-26T13:59:32.373Z,0.98
2022-09-26T14:02:24.753Z,0.93
2022-09-26T14:05:18.261Z,1.27
2022-09-26T14:08:50.778Z,1.85
2022-09-26T14:11:48.923Z,3.13
2022-09-26T14:14:44.544Z,2.50
2022-09-26T14:17:43.679Z,1.17
2022-09-26T14:20:47.625Z,0.57
2022-09-26T14:23:42.699Z,0.60
2022-09-26T14:26:43.729Z,0.93
2022-09-26T14:29:49.244Z,2.25
2022-09-26T14:32:44.871Z,2.55
2022-09-26T14:35:38.525Z,0.90
2022-09-26T14:38:28.782Z,1.60
2022-09-26T14:41:21.338Z,0.75
2022-09-26T14:44:18.955Z,1.17
2022-09-26T14:47:16.123Z,1.83
2022-09-26T14:50:27.192Z,1.40
2022-09-26T14:53:25.066Z,0.75
2022-09-26T14:56:38.193Z,2.63
2022-09-26T14:59:34.553Z,4.45
2022-09-26T15:02:38.221Z,1.20
2022-09-26T15:05:28.586Z,2.93
2022-09-26T15:08:28.742Z,1.30
2022-09-26T15:11:37.720Z,2.45
2022-09-26T15:14:49.941Z,1.90
2022-09-26T15:17:45.885Z,3.05
2022-09-26T15:20:42.703Z,4.60
2022-09-26T15:23:44.242Z,3.35
2022-09-26T15:26:36.747Z,1.77
2022-09-26T15:29:27.208Z,2.95
2022-09-26T15:32:25.979Z,2.80
2022-09-26T15:35:16.841Z,3.80
2022-09-26T15:38:12.301Z,2.28
2022-09-26T15:41:04.068Z,7.20
2022-09-26T15:44:00.965Z,2.00
2022-09-26T15:46:51.474Z,5.07
2022-09-26T15:49:41.793Z,4.35
2022-09-26T15:52:35.358Z,7.28
2022-09-26T15:56:01.976Z,4.13
2022-09-26T15:58:53.891Z,5.80
2022-09-26T16:01:48.671Z,5.10
2022-09-26T16:04:41.074Z,7.20
2022-09-26T16:07:32.417Z,2.63
2022-09-26T16:10:33.528Z,2.90
2022-09-26T16:13:33.918Z,3.17
2022-09-26T16:16:31.841Z,5.90
2022-09-26T16:19:32.207Z,3.75
2022-09-26T16:22:46.327Z,2.08
2022-09-26T16:25:53.404Z,9.48
2022-09-26T16:28:46.234Z,2.28
2022-09-26T16:31:40.292Z,2.78
2022-09-26T16:34:30.992Z,3.28
2022-09-26T16:37:23.100Z,4.75
2022-09-26T16:40:18.104Z,1.55
2022-09-26T16:43:12.467Z,2.22
2022-09-26T16:48:59.498Z,2.72
2022-09-26T16:52:27.727Z,1.98
2022-09-26T16:55:17.627Z,1.15
2022-09-26T16:58:12.826Z,4.15
2022-09-26T17:01:21.891Z,3.05
2022-09-26T17:04:20.451Z,1.40
2022-09-26T17:07:13.430Z,1.90
2022-09-26T17:10:03.683Z,2.00
2022-09-26T17:12:54.335Z,1.50
2022-09-26T17:15:47.428Z,12.18
2022-09-26T17:18:37.644Z,3.93
2022-09-26T17:21:28.499Z,3.47
2022-09-26T17:24:23.369Z,1.83
2022-09-26T17:27:17.676Z,4.13
2022-09-26T17:30:16.282Z,3.30
2022-09-26T17:33:06.710Z,2.35
2022-09-26T17:35:56.861Z,3.60
2022-09-26T17:38:47.195Z,4.25
2022-09-26T17:41:38.055Z,3.60
2022-09-26T17:44:28.000Z,3.80
2022-09-26T17:47:19.098Z,3.08
2022-09-26T17:50:17.079Z,5.75
2022-09-26T17:53:10.321Z,3.03
2022-09-26T17:56:00.225Z,1.45
2022-09-26T17:58:51.827Z,4.72
2022-09-26T18:01:42.282Z,3.70
2022-09-26T18:04:32.814Z,11.82
2022-09-26T18:07:22.866Z,7.00
2022-09-26T18:10:33.857Z,6.97
2022-09-26T18:13:28.585Z,6.20
2022-09-26T18:16:18.979Z,8.15
2022-09-26T18:19:09.560Z,3.38
2022-09-26T18:21:59.678Z,3.00
2022-09-26T18:24:51.953Z,6.95
2022-09-26T18:27:41.876Z,2.00
2022-09-26T18:30:32.377Z,2.85
2022-09-26T18:33:22.530Z,2.75
2022-09-26T18:36:12.778Z,3.90
2022-09-26T18:39:03.513Z,4.95
2022-09-26T18:42:02.164Z,4.40
2022-09-26T18:45:05.297Z,6.63
2022-09-26T18:47:55.289Z,3.97
2022-09-26T18:50:45.968Z,2.38
2022-09-26T18:53:37.582Z,3.28
2022-09-26T18:56:46.768Z,3.38
2022-09-26T18:59:36.916Z,2.03
2022-09-26T19:02:33.475Z,4.70
2022-09-26T19:05:23.684Z,16.38
2022-09-26T19:08:28.160Z,3.25
2022-09-26T19:14:16.437Z,7.70
2022-09-26T19:17:07.178Z,4.75
2022-09-26T19:19:57.322Z,3.67
2022-09-26T19:22:47.357Z,5.45
2022-09-26T19:25:37.716Z,4.88
2022-09-26T19:28:32.795Z,2.67
2022-09-26T19:31:23.974Z,2.25
2022-09-26T19:34:15.854Z,2.97
2022-09-26T19:37:09.834Z,1.77
2022-09-26T19:40:00.733Z,4.07
2022-09-26T19:42:51.482Z,7.25
2022-09-26T19:45:41.992Z,4.22
2022-09-26T19:48:38.633Z,7.72
2022-09-26T19:51:31.160Z,2.97
2022-09-26T19:54:21.690Z,3.63
2022-09-26T19:57:20.504Z,5.55
2022-09-26T20:00:11.810Z,4.40
2022-09-26T20:03:02.089Z,2.83
2022-09-26T20:05:55.109Z,2.10
2022-09-26T20:08:45.906Z,3.10
2022-09-26T20:11:35.958Z,2.80
2022-09-26T20:14:26.378Z,6.10
2022-09-26T20:17:26.837Z,2.20
2022-09-26T20:20:20.043Z,5.97
2022-09-26T20:23:17.319Z,3.53
2022-09-26T20:26:08.248Z,1.98
2022-09-26T20:28:58.420Z,4.82
2022-09-26T20:31:48.774Z,3.20
2022-09-26T20:34:39.040Z,4.00
2022-09-26T20:37:32.781Z,4.30
2022-09-26T20:40:24.170Z,2.87
2022-09-26T20:43:27.990Z,7.13
2022-09-26T20:46:21.805Z,5.70
2022-09-26T20:49:18.625Z,4.53
2022-09-26T20:52:19.239Z,4.85
2022-09-26T20:55:18.160Z,4.43
2022-09-26T20:58:09.271Z,4.93
2022-09-26T21:00:59.412Z,2.83
2022-09-26T21:03:55.244Z,1.73
2022-09-26T21:06:46.928Z,4.95
2022-09-26T21:09:37.331Z,4.45
2022-09-26T21:12:27.759Z,2.33
2022-09-26T21:15:18.386Z,6.93
2022-09-26T21:18:26.240Z,3.35
2022-09-26T21:21:22.471Z,2.05
2022-09-26T21:24:32.616Z,2.65
2022-09-26T21:27:23.127Z,1.92
2022-09-26T21:30:15.258Z,2.60
2022-09-26T21:33:05.697Z,2.90
2022-09-26T21:35:56.451Z,2.80
2022-09-26T21:38:49.907Z,1.58
2022-09-26T21:41:40.249Z,3.50
2022-09-26T21:44:48.134Z,1.92
2022-09-26T21:47:38.195Z,3.13
2022-09-26T21:50:29.462Z,0.93
2022-09-26T21:53:31.968Z,1.70
2022-09-26T21:56:28.721Z,1.23
2022-09-26T21:59:21.265Z,2.38
2022-09-26T22:02:11.574Z,2.03
2022-09-26T22:05:01.907Z,2.47
2022-09-26T22:07:51.912Z,1.98
2022-09-26T22:10:41.903Z,3.65
2022-09-26T22:13:37.018Z,0.90
2022-09-26T22:16:27.161Z,1.73
2022-09-26T22:19:17.359Z,1.17
2022-09-26T22:22:07.824Z,4.10
2022-09-26T22:25:04.082Z,1.52
2022-09-26T22:27:54.143Z,2.65
2022-09-26T22:30:44.314Z,6.53
2022-09-26T22:33:34.696Z,0.82
2022-09-26T22:36:26.601Z,1.88
2022-09-26T22:39:17.156Z,1.05
2022-09-26T22:42:07.534Z,2.10
2022-09-26T22:44:58.227Z,0.85
2022-09-26T22:47:48.774Z,2.92
2022-09-26T22:50:38.750Z,1.48
2022-09-26T22:53:31.159Z,1.98
2022-09-26T22:56:21.381Z,2.10
2022-09-26T22:59:11.884Z,0.90
2022-09-26T23:02:01.924Z,2.05
2022-09-26T23:04:52.360Z,0.57
2022-09-26T23:07:42.551Z,4.50
2022-09-26T23:10:33.180Z,2.25
2022-09-26T23:13:26.274Z,1.27
2022-09-26T23:16:20.175Z,1.95
2022-09-26T23:19:10.653Z,2.40
2022-09-26T23:22:00.791Z,1.23
2022-09-26T23:24:50.810Z,0.80
2022-09-26T23:27:40.656Z,0.85
2022-09-26T23:30:30.688Z,0.50
2022-09-26T23:33:21.312Z,2.47
2022-09-26T23:36:11.821Z,4.57
2022-09-26T23:39:01.868Z,1.70
2022-09-26T23:41:51.849Z,1.38
2022-09-26T23:44:41.683Z,1.00
2022-09-26T23:47:31.581Z,2.35
2022-09-26T23:50:21.466Z,1.40
2022-09-26T23:53:11.902Z,1.95
2022-09-26T23:56:04.260Z,2.00
2022-09-26T23:58:56.536Z,2.25
